Time;durP1;ratioP1;P1;durP2;ratioP2;P2;SDS_P1;SDS_P2;PMS_P1;PMS_P2;Temp;Humidity;BMP_temperature;BMP_pressure;BME280_temperature;BME280_humidity;BME280_pressure;Samples;Min_cycle;Max_cycle;Signal;HPM_P1;HPM_P2
2021/07/24 00:01:56;;;;;;;21.98;12.50;;;;;;;;;;5024321;28;20214;-69
2021/07/24 00:04:22;;;;;;;24.10;13.98;;;;;;;;;;5016705;28;20529;-68
2021/07/24 00:06:47;;;;;;;22.63;13.77;;;;;;;;;;5016110;28;20194;-68
2021/07/24 00:09:14;;;;;;;17.58;12.98;;;;;;;;;;5011694;28;20194;-68
2021/07/24 00:11:39;;;;;;;21.08;13.25;;;;;;;;;;5019024;28;20182;-68
2021/07/24 00:14:05;;;;;;;21.08;13.52;;;;;;;;;;5014971;28;20198;-68
2021/07/24 00:16:30;;;;;;;20.58;12.73;;;;;;;;;;5018607;28;20186;-68
2021/07/24 00:18:55;;;;;;;22.10;12.68;;;;;;;;;;5016722;28;20194;-68
2021/07/24 00:21:21;;;;;;;20.50;14.13;;;;;;;;;;5020312;28;20191;-68
2021/07/24 00:23:46;;;;;;;23.25;14.10;;;;;;;;;;5019968;28;20401;-68
2021/07/24 00:26:13;;;;;;;24.15;14.43;;;;;;;;;;5021193;28;20214;-68
2021/07/24 00:28:39;;;;;;;22.75;14.05;;;;;;;;;;5016214;28;20190;-67
2021/07/24 00:31:04;;;;;;;22.40;14.10;;;;;;;;;;5022721;28;20606;-68
2021/07/24 00:33:30;;;;;;;20.17;13.40;;;;;;;;;;5016592;28;20190;-69
2021/07/24 00:35:56;;;;;;;21.20;14.43;;;;;;;;;;5020604;28;20186;-69
2021/07/24 00:38:21;;;;;;;20.70;13.60;;;;;;;;;;5022853;28;20654;-68
2021/07/24 00:40:53;;;;;;;21.83;13.93;;;;;;;;;;5015800;28;20260;-68
2021/07/24 00:43:20;;;;;;;27.02;14.60;;;;;;;;;;5026281;28;20183;-68
2021/07/24 00:45:47;;;;;;;25.25;14.05;;;;;;;;;;5016482;28;20206;-68
2021/07/24 00:48:19;;;;;;;22.50;14.55;;;;;;;;;;5020222;28;20265;-69
2021/07/24 00:50:47;;;;;;;28.42;15.35;;;;;;;;;;5014975;28;20182;-68
2021/07/24 00:53:20;;;;;;;22.08;14.20;;;;;;;;;;5020197;28;20548;-68
2021/07/24 00:55:45;;;;;;;22.77;14.32;;;;;;;;;;5010410;28;20226;-68
2021/07/24 00:58:27;;;;;;;24.02;14.40;;;;;;;;;;5026824;28;20532;-68
2021/07/24 01:00:53;;;;;;;24.65;14.15;;;;;;;;;;5006000;28;20222;-68
2021/07/24 01:03:20;;;;;;;20.45;14.32;;;;;;;;;;5032464;28;20261;-68
2021/07/24 01:05:52;;;;;;;24.73;14.70;;;;;;;;;;5006698;28;20214;-68
2021/07/24 01:08:18;;;;;;;25.42;14.75;;;;;;;;;;5025670;28;20185;-68
2021/07/24 01:10:45;;;;;;;22.67;14.02;;;;;;;;;;5016833;28;20182;-68
2021/07/24 01:13:16;;;;;;;23.42;15.00;;;;;;;;;;5028364;28;20182;-68
2021/07/24 01:15:41;;;;;;;23.63;14.38;;;;;;;;;;5014385;28;20234;-68
2021/07/24 01:18:07;;;;;;;23.30;13.32;;;;;;;;;;5014667;28;20316;-68
2021/07/24 01:20:33;;;;;;;27.17;13.98;;;;;;;;;;5021729;28;20507;-69
2021/07/24 01:22:58;;;;;;;26.58;14.60;;;;;;;;;;5011546;28;20194;-68
2021/07/24 01:25:23;;;;;;;23.17;15.15;;;;;;;;;;5020212;28;20211;-68
2021/07/24 01:27:49;;;;;;;25.08;15.23;;;;;;;;;;5018595;28;20221;-68
2021/07/24 01:30:14;;;;;;;25.23;13.20;;;;;;;;;;5021840;28;20194;-69
2021/07/24 01:32:39;;;;;;;22.70;13.93;;;;;;;;;;5021387;28;20186;-68
2021/07/24 01:35:06;;;;;;;20.30;13.88;;;;;;;;;;5021324;28;20264;-68
2021/07/24 01:37:31;;;;;;;24.10;14.98;;;;;;;;;;5008775;28;20284;-68
2021/07/24 01:39:56;;;;;;;28.40;15.25;;;;;;;;;;5022593;28;20273;-68
2021/07/24 01:42:21;;;;;;;21.42;13.73;;;;;;;;;;5017671;28;20588;-68
2021/07/24 01:44:47;;;;;;;22.17;14.55;;;;;;;;;;5018727;28;20206;-68
2021/07/24 01:47:12;;;;;;;27.48;15.32;;;;;;;;;;5027691;28;20198;-69
2021/07/24 01:52:46;;;;;;;24.35;13.93;;;;;;;;;;5025853;28;20193;-68
2021/07/24 01:55:33;;;;;;;26.15;14.43;;;;;;;;;;5022344;28;20340;-69
2021/07/24 01:58:02;;;;;;;22.10;14.10;;;;;;;;;;5017422;28;20206;-68
2021/07/24 02:00:29;;;;;;;23.10;14.20;;;;;;;;;;5028262;28;20209;-68
2021/07/24 02:02:55;;;;;;;25.17;14.13;;;;;;;;;;5023879;28;20202;-68
2021/07/24 02:05:41;;;;;;;23.52;14.93;;;;;;;;;;5017789;28;20205;-68
2021/07/24 02:08:08;;;;;;;24.77;14.18;;;;;;;;;;5021698;28;20194;-68
2021/07/24 02:10:34;;;;;;;23.98;13.88;;;;;;;;;;5021037;28;20182;-68
2021/07/24 02:13:00;;;;;;;23.10;13.88;;;;;;;;;;5023812;28;20252;-69
2021/07/24 02:15:25;;;;;;;23.65;14.27;;;;;;;;;;5016859;28;20233;-68
2021/07/24 02:17:51;;;;;;;23.25;14.70;;;;;;;;;;5024698;28;20346;-69
2021/07/24 02:20:21;;;;;;;23.63;14.68;;;;;;;;;;5020547;28;20201;-68
2021/07/24 02:22:47;;;;;;;26.55;13.88;;;;;;;;;;5027769;28;20219;-68
2021/07/24 02:25:12;;;;;;;23.00;14.27;;;;;;;;;;5017910;28;20241;-68
2021/07/24 02:27:46;;;;;;;29.15;15.07;;;;;;;;;;5021299;28;20638;-69
2021/07/24 02:30:12;;;;;;;27.80;14.43;;;;;;;;;;5021633;28;20200;-68
2021/07/24 02:32:37;;;;;;;23.67;14.20;;;;;;;;;;5017091;28;20289;-68
2021/07/24 02:35:04;;;;;;;24.52;14.13;;;;;;;;;;5024509;28;20244;-68
2021/07/24 02:37:29;;;;;;;24.50;13.48;;;;;;;;;;5018219;28;20218;-67
2021/07/24 02:39:54;;;;;;;22.30;14.10;;;;;;;;;;5026121;28;20634;-68
2021/07/24 02:42:20;;;;;;;23.60;14.32;;;;;;;;;;5036971;28;20292;-68
2021/07/24 02:44:45;;;;;;;24.55;14.82;;;;;;;;;;5022458;28;20588;-68
2021/07/24 02:47:10;;;;;;;27.88;14.93;;;;;;;;;;5016691;28;20760;-69
2021/07/24 02:49:36;;;;;;;28.02;15.15;;;;;;;;;;5028000;28;20182;-68
2021/07/24 02:52:01;;;;;;;24.67;13.93;;;;;;;;;;5014508;28;20190;-68
2021/07/24 02:54:26;;;;;;;24.27;14.38;;;;;;;;;;5032531;28;20228;-69
2021/07/24 02:56:52;;;;;;;25.08;14.55;;;;;;;;;;5011364;28;20657;-68
2021/07/24 02:59:17;;;;;;;26.88;15.38;;;;;;;;;;5027291;28;20665;-68
2021/07/24 03:01:43;;;;;;;23.63;14.18;;;;;;;;;;5020055;28;20584;-68
2021/07/24 03:04:09;;;;;;;23.65;14.60;;;;;;;;;;5028755;28;20660;-68
2021/07/24 03:06:34;;;;;;;24.52;14.88;;;;;;;;;;5014602;28;20243;-69
2021/07/24 03:09:00;;;;;;;25.30;14.07;;;;;;;;;;5019409;28;20261;-68
2021/07/24 03:11:25;;;;;;;24.48;14.40;;;;;;;;;;5009193;28;20187;-68
2021/07/24 03:13:51;;;;;;;26.58;14.32;;;;;;;;;;5022414;28;20601;-68
2021/07/24 03:16:16;;;;;;;26.15;14.40;;;;;;;;;;5019841;28;20178;-68
2021/07/24 03:18:41;;;;;;;27.02;14.80;;;;;;;;;;5018688;28;20240;-72
2021/07/24 03:21:07;;;;;;;27.88;14.40;;;;;;;;;;5022754;28;20193;-68
2021/07/24 03:23:32;;;;;;;26.73;14.65;;;;;;;;;;5023950;28;20551;-68
2021/07/24 03:25:57;;;;;;;24.85;14.75;;;;;;;;;;5018291;28;20276;-68
2021/07/24 03:28:23;;;;;;;24.33;13.90;;;;;;;;;;5019774;28;20186;-69
2021/07/24 03:30:49;;;;;;;23.85;14.00;;;;;;;;;;5021388;28;20231;-68
2021/07/24 03:33:15;;;;;;;27.73;15.30;;;;;;;;;;5012274;28;20543;-67
2021/07/24 03:35:40;;;;;;;24.85;14.35;;;;;;;;;;5018550;28;20236;-68
2021/07/24 03:38:05;;;;;;;28.60;15.57;;;;;;;;;;5022635;28;20524;-68
2021/07/24 03:40:31;;;;;;;27.33;15.40;;;;;;;;;;5022931;28;20558;-68
2021/07/24 03:42:57;;;;;;;28.73;15.77;;;;;;;;;;5023096;28;20244;-68
2021/07/24 03:45:22;;;;;;;26.30;14.68;;;;;;;;;;5019855;28;20205;-67
2021/07/24 03:47:48;;;;;;;25.38;15.63;;;;;;;;;;5027483;28;20185;-68
2021/07/24 03:50:13;;;;;;;22.65;14.73;;;;;;;;;;5013525;28;20190;-68
2021/07/24 03:52:38;;;;;;;24.17;15.10;;;;;;;;;;5028038;28;20314;-68
2021/07/24 03:55:04;;;;;;;27.08;15.55;;;;;;;;;;5015687;28;20333;-68
2021/07/24 03:57:30;;;;;;;27.15;14.25;;;;;;;;;;5024139;28;20182;-67
2021/07/24 03:59:55;;;;;;;24.27;14.25;;;;;;;;;;5014080;28;20210;-67
2021/07/24 04:02:24;;;;;;;23.08;14.60;;;;;;;;;;5030149;28;20276;-68
2021/07/24 04:04:52;;;;;;;26.58;14.63;;;;;;;;;;5015553;28;20199;-69
2021/07/24 04:07:22;;;;;;;25.85;14.48;;;;;;;;;;5023348;28;20224;-69
2021/07/24 04:09:47;;;;;;;26.75;14.85;;;;;;;;;;5014626;28;20187;-69
2021/07/24 04:12:13;;;;;;;27.05;14.65;;;;;;;;;;5025816;28;20208;-67
2021/07/24 04:14:38;;;;;;;24.35;14.88;;;;;;;;;;5014217;28;20231;-68
2021/07/24 04:17:04;;;;;;;27.10;15.00;;;;;;;;;;5025954;28;20186;-68
2021/07/24 04:19:31;;;;;;;24.02;14.43;;;;;;;;;;5019451;28;20182;-69
2021/07/24 04:21:56;;;;;;;25.67;15.25;;;;;;;;;;5018709;28;20186;-68
2021/07/24 04:24:21;;;;;;;28.10;14.90;;;;;;;;;;5022497;28;20646;-68
2021/07/24 04:26:46;;;;;;;25.58;14.30;;;;;;;;;;5015961;28;20190;-68
2021/07/24 04:29:12;;;;;;;27.98;14.32;;;;;;;;;;5017417;28;20198;-68
2021/07/24 04:31:38;;;;;;;23.58;14.07;;;;;;;;;;5016946;28;20186;-68
2021/07/24 04:34:03;;;;;;;25.23;13.68;;;;;;;;;;5018643;28;20205;-68
2021/07/24 04:36:28;;;;;;;30.73;14.25;;;;;;;;;;5021548;28;20189;-69
2021/07/24 04:38:54;;;;;;;24.58;14.52;;;;;;;;;;5017964;28;20197;-69
2021/07/24 04:41:21;;;;;;;23.67;14.35;;;;;;;;;;5018034;28;20194;-69
2021/07/24 04:43:46;;;;;;;20.33;13.13;;;;;;;;;;5021759;28;20192;-68
2021/07/24 04:46:12;;;;;;;20.98;13.40;;;;;;;;;;5015017;28;20206;-69
2021/07/24 04:48:38;;;;;;;22.60;14.05;;;;;;;;;;5017109;28;20186;-68
2021/07/24 04:51:03;;;;;;;24.88;14.60;;;;;;;;;;5025469;28;20570;-68
2021/07/24 04:53:29;;;;;;;21.70;12.80;;;;;;;;;;5010655;28;20613;-68
2021/07/24 04:55:54;;;;;;;23.05;14.20;;;;;;;;;;5029468;28;20566;-69
2021/07/24 04:58:21;;;;;;;23.98;13.90;;;;;;;;;;5013191;28;20181;-68
2021/07/24 05:00:47;;;;;;;24.33;15.30;;;;;;;;;;5030715;28;20197;-68
2021/07/24 05:03:13;;;;;;;24.15;14.15;;;;;;;;;;5013220;28;20232;-69
2021/07/24 05:05:40;;;;;;;21.48;13.18;;;;;;;;;;5027464;28;20210;-69
2021/07/24 05:08:07;;;;;;;22.15;14.32;;;;;;;;;;5011572;28;20186;-68
2021/07/24 05:10:32;;;;;;;21.95;13.48;;;;;;;;;;5026133;28;20196;-68
2021/07/24 05:12:58;;;;;;;23.48;14.50;;;;;;;;;;5012456;28;20190;-68
2021/07/24 05:15:24;;;;;;;20.25;13.45;;;;;;;;;;5020599;28;20174;-69
2021/07/24 05:17:49;;;;;;;20.42;13.07;;;;;;;;;;5011753;28;20488;-68
2021/07/24 05:20:15;;;;;;;21.95;13.48;;;;;;;;;;5023664;28;20827;-68
2021/07/24 05:22:40;;;;;;;22.02;14.50;;;;;;;;;;5017174;28;20189;-69
2021/07/24 05:25:06;;;;;;;21.48;13.55;;;;;;;;;;5016667;28;20988;-69
2021/07/24 05:27:31;;;;;;;21.48;13.55;;;;;;;;;;5023399;28;20202;-70
2021/07/24 05:29:56;;;;;;;26.25;14.60;;;;;;;;;;5019579;28;20614;-68
2021/07/24 05:32:22;;;;;;;21.00;13.77;;;;;;;;;;5015055;28;20198;-68
2021/07/24 05:34:47;;;;;;;22.85;13.80;;;;;;;;;;5020801;28;20197;-70
2021/07/24 05:37:13;;;;;;;21.88;14.23;;;;;;;;;;5020387;28;20222;-70
2021/07/24 05:39:38;;;;;;;20.90;13.55;;;;;;;;;;5025201;28;20326;-68
2021/07/24 05:42:04;;;;;;;22.75;13.95;;;;;;;;;;5024145;28;20336;-69
2021/07/24 05:44:29;;;;;;;23.15;13.82;;;;;;;;;;5021755;28;20194;-68
2021/07/24 05:46:54;;;;;;;26.05;14.55;;;;;;;;;;5021600;28;20194;-70
2021/07/24 05:49:20;;;;;;;21.67;14.15;;;;;;;;;;5027214;28;20190;-68
2021/07/24 05:51:45;;;;;;;24.95;14.27;;;;;;;;;;5014928;28;20332;-68
2021/07/24 05:54:11;;;;;;;23.23;15.55;;;;;;;;;;5024580;28;20226;-68
2021/07/24 05:56:37;;;;;;;25.13;14.52;;;;;;;;;;5012702;28;20296;-68
2021/07/24 05:59:03;;;;;;;26.02;14.38;;;;;;;;;;5030504;28;20181;-69
2021/07/24 06:01:28;;;;;;;21.48;13.23;;;;;;;;;;5015246;28;20189;-69
2021/07/24 06:03:54;;;;;;;25.23;14.35;;;;;;;;;;5034892;28;20181;-68
2021/07/24 06:06:20;;;;;;;21.95;13.93;;;;;;;;;;5011452;28;20292;-68
2021/07/24 06:08:45;;;;;;;23.67;14.60;;;;;;;;;;5030139;28;20213;-68
2021/07/24 06:11:10;;;;;;;21.48;14.10;;;;;;;;;;5014742;28;20653;-68
2021/07/24 06:13:36;;;;;;;20.83;14.18;;;;;;;;;;5024917;28;20183;-69
2021/07/24 06:16:01;;;;;;;21.02;14.55;;;;;;;;;;5017143;28;20178;-69
2021/07/24 06:18:26;;;;;;;22.55;14.40;;;;;;;;;;5030067;28;20622;-69
2021/07/24 06:20:52;;;;;;;20.75;14.02;;;;;;;;;;5019465;28;20549;-68
2021/07/24 06:23:18;;;;;;;20.27;14.45;;;;;;;;;;5016222;28;20214;-69
2021/07/24 06:25:44;;;;;;;18.20;12.98;;;;;;;;;;5025320;28;20211;-69
2021/07/24 06:28:10;;;;;;;20.92;13.15;;;;;;;;;;5008772;28;20193;-69
2021/07/24 06:30:35;;;;;;;19.75;13.18;;;;;;;;;;5025367;28;20649;-69
2021/07/24 06:33:01;;;;;;;18.73;12.38;;;;;;;;;;5019498;28;20667;-68
2021/07/24 06:35:26;;;;;;;20.23;13.82;;;;;;;;;;5022131;28;20694;-69
2021/07/24 06:37:52;;;;;;;22.02;12.88;;;;;;;;;;5022763;28;20186;-69
2021/07/24 06:40:18;;;;;;;20.17;13.00;;;;;;;;;;5027514;28;20186;-69
2021/07/24 06:42:43;;;;;;;18.25;12.93;;;;;;;;;;5013834;28;20634;-69
2021/07/24 06:45:09;;;;;;;18.52;12.73;;;;;;;;;;5022760;28;20574;-69
2021/07/24 06:47:34;;;;;;;24.60;13.20;;;;;;;;;;5010669;28;20240;-69
2021/07/24 06:49:59;;;;;;;22.27;13.25;;;;;;;;;;5024978;28;20186;-69
2021/07/24 06:52:25;;;;;;;19.65;13.50;;;;;;;;;;5033580;28;20684;-67
2021/07/24 06:54:50;;;;;;;22.58;13.35;;;;;;;;;;5019339;28;20250;-69
2021/07/24 06:57:15;;;;;;;19.88;13.13;;;;;;;;;;5029914;28;20186;-68
2021/07/24 06:59:41;;;;;;;20.73;13.07;;;;;;;;;;5015396;28;20833;-68
2021/07/24 07:02:06;;;;;;;19.55;13.35;;;;;;;;;;5016240;28;20295;-68
2021/07/24 07:04:32;;;;;;;26.08;14.07;;;;;;;;;;5017012;28;20206;-69
2021/07/24 07:06:58;;;;;;;20.25;13.35;;;;;;;;;;5023273;28;20198;-69
2021/07/24 07:09:23;;;;;;;21.17;13.20;;;;;;;;;;5015902;28;20238;-69
2021/07/24 07:11:49;;;;;;;21.60;13.38;;;;;;;;;;5021657;28;20324;-69
2021/07/24 07:14:14;;;;;;;19.10;12.60;;;;;;;;;;5015301;28;20190;-69
2021/07/24 07:16:39;;;;;;;17.02;12.27;;;;;;;;;;5026408;28;20677;-69
2021/07/24 07:19:06;;;;;;;20.15;13.65;;;;;;;;;;5011347;28;20186;-69
2021/07/24 07:21:32;;;;;;;17.60;12.13;;;;;;;;;;5027182;28;20186;-69
2021/07/24 07:23:57;;;;;;;19.33;12.38;;;;;;;;;;5024078;28;20463;-68
2021/07/24 07:26:24;;;;;;;18.77;12.07;;;;;;;;;;5021917;28;20668;-67
2021/07/24 07:28:49;;;;;;;17.88;11.90;;;;;;;;;;5022649;28;20261;-69
2021/07/24 07:31:15;;;;;;;17.73;12.80;;;;;;;;;;5019189;28;20324;-69
2021/07/24 07:33:41;;;;;;;16.60;11.85;;;;;;;;;;5027235;28;20213;-69
2021/07/24 07:36:06;;;;;;;18.40;12.73;;;;;;;;;;5013699;28;20187;-69
2021/07/24 07:38:31;;;;;;;15.48;11.80;;;;;;;;;;5022919;28;20193;-69
2021/07/24 07:40:57;;;;;;;18.02;11.95;;;;;;;;;;5013517;28;20775;-69
2021/07/24 07:43:22;;;;;;;18.02;12.75;;;;;;;;;;5018289;28;20200;-69
2021/07/24 07:45:47;;;;;;;17.00;12.07;;;;;;;;;;5012823;28;21042;-69
2021/07/24 07:48:13;;;;;;;15.82;12.13;;;;;;;;;;5022689;28;20536;-69
2021/07/24 07:50:40;;;;;;;18.42;11.95;;;;;;;;;;5027960;28;20202;-69
2021/07/24 07:53:06;;;;;;;18.73;12.07;;;;;;;;;;5016860;28;20304;-70
2021/07/24 07:55:31;;;;;;;17.30;12.55;;;;;;;;;;5025601;28;20616;-70
2021/07/24 07:57:57;;;;;;;17.73;12.00;;;;;;;;;;5024159;28;20564;-69
2021/07/24 08:00:22;;;;;;;13.85;10.95;;;;;;;;;;5014487;28;20210;-67
2021/07/24 08:02:54;;;;;;;15.25;11.15;;;;;;;;;;5018371;28;20679;-68
2021/07/24 08:05:20;;;;;;;14.82;10.82;;;;;;;;;;5019259;28;20301;-68
2021/07/24 08:07:46;;;;;;;14.80;10.98;;;;;;;;;;5019910;28;20352;-69
2021/07/24 08:10:11;;;;;;;15.15;11.07;;;;;;;;;;5018937;28;20201;-69
2021/07/24 08:12:36;;;;;;;13.40;10.68;;;;;;;;;;5048084;28;20190;-70
2021/07/24 08:15:02;;;;;;;18.58;10.95;;;;;;;;;;5020913;28;20202;-69
2021/07/24 08:17:27;;;;;;;16.45;10.55;;;;;;;;;;5011528;28;20604;-70
2021/07/24 08:19:52;;;;;;;15.32;10.10;;;;;;;;;;5017885;28;20240;-70
2021/07/24 08:22:18;;;;;;;16.70;10.43;;;;;;;;;;5021508;28;20243;-69
2021/07/24 08:24:43;;;;;;;15.02;10.70;;;;;;;;;;5017296;28;20563;-69
2021/07/24 08:27:08;;;;;;;13.50;10.10;;;;;;;;;;5026937;28;20605;-73
2021/07/24 08:29:34;;;;;;;13.70;10.40;;;;;;;;;;5011927;28;20198;-70
2021/07/24 08:31:59;;;;;;;14.13;10.57;;;;;;;;;;5029479;28;20271;-70
2021/07/24 08:34:25;;;;;;;12.90;9.27;;;;;;;;;;5016773;28;20218;-69
2021/07/24 08:36:50;;;;;;;14.15;10.65;;;;;;;;;;5027909;28;20181;-69
2021/07/24 08:39:15;;;;;;;14.75;10.85;;;;;;;;;;5011888;28;20179;-68
2021/07/24 08:41:41;;;;;;;14.93;11.10;;;;;;;;;;5020822;28;20577;-70
2021/07/24 08:44:10;;;;;;;14.88;11.18;;;;;;;;;;5011085;28;20297;-69
2021/07/24 08:46:35;;;;;;;14.65;11.23;;;;;;;;;;5029798;28;20212;-70
2021/07/24 08:49:00;;;;;;;14.98;10.63;;;;;;;;;;5014963;28;20608;-69
2021/07/24 08:51:30;;;;;;;14.20;10.77;;;;;;;;;;5026199;28;20182;-69
2021/07/24 08:53:56;;;;;;;14.15;11.63;;;;;;;;;;5019541;28;20342;-68
2021/07/24 08:56:25;;;;;;;13.98;11.93;;;;;;;;;;5020523;28;20185;-69
2021/07/24 08:58:59;;;;;;;16.50;11.75;;;;;;;;;;5019219;28;20194;-69
2021/07/24 09:01:25;;;;;;;15.68;10.82;;;;;;;;;;5014679;28;20182;-69
2021/07/24 09:03:54;;;;;;;14.13;11.60;;;;;;;;;;5036930;28;20201;-67
2021/07/24 09:06:22;;;;;;;13.18;10.90;;;;;;;;;;5019059;28;20202;-68
2021/07/24 09:08:52;;;;;;;13.68;11.38;;;;;;;;;;5025863;28;20194;-69
2021/07/24 09:11:18;;;;;;;15.60;11.30;;;;;;;;;;5014924;28;20552;-69
2021/07/24 09:13:43;;;;;;;13.10;11.02;;;;;;;;;;5019576;28;20186;-68
2021/07/24 09:16:09;;;;;;;16.38;10.82;;;;;;;;;;5018410;28;20178;-68
2021/07/24 09:18:36;;;;;;;18.48;10.40;;;;;;;;;;5016014;28;20182;-70
2021/07/24 09:21:02;;;;;;;14.55;10.88;;;;;;;;;;5018552;28;20241;-70
2021/07/24 09:23:39;;;;;;;13.40;10.20;;;;;;;;;;5019807;28;20186;-69
2021/07/24 09:26:05;;;;;;;16.83;10.75;;;;;;;;;;5015945;28;20216;-71
2021/07/24 09:28:31;;;;;;;15.23;10.73;;;;;;;;;;5021014;28;20186;-68
2021/07/24 09:30:56;;;;;;;13.07;10.63;;;;;;;;;;5011339;28;20181;-69
2021/07/24 09:33:22;;;;;;;14.20;10.65;;;;;;;;;;5015578;28;20546;-71
2021/07/24 09:35:55;;;;;;;14.15;10.15;;;;;;;;;;5019884;28;20182;-70
2021/07/24 09:38:30;;;;;;;15.50;10.60;;;;;;;;;;5021484;28;20281;-68
2021/07/24 09:40:58;;;;;;;18.33;10.55;;;;;;;;;;5029974;28;20710;-68
2021/07/24 09:43:41;;;;;;;15.05;10.93;;;;;;;;;;5010550;28;20178;-66
2021/07/24 09:46:17;;;;;;;14.10;10.70;;;;;;;;;;5025676;28;20214;-68
2021/07/24 09:48:50;;;;;;;15.75;10.63;;;;;;;;;;5013198;28;20305;-68
2021/07/24 09:51:32;;;;;;;12.25;9.90;;;;;;;;;;5018132;28;20182;-68
2021/07/24 09:53:58;;;;;;;12.50;10.80;;;;;;;;;;5013337;28;20233;-68
2021/07/24 09:56:43;;;;;;;14.27;10.82;;;;;;;;;;5026431;28;20190;-67
2021/07/24 09:59:24;;;;;;;14.88;11.15;;;;;;;;;;5016733;28;20308;-69
2021/07/24 10:02:01;;;;;;;16.83;11.15;;;;;;;;;;5025443;28;20617;-69
2021/07/24 10:04:28;;;;;;;14.00;11.23;;;;;;;;;;5014384;28;20218;-68
2021/07/24 10:07:00;;;;;;;14.38;10.25;;;;;;;;;;5022358;28;20378;-69
2021/07/24 10:09:30;;;;;;;13.07;11.30;;;;;;;;;;5012440;28;20194;-69
2021/07/24 10:11:57;;;;;;;17.52;11.13;;;;;;;;;;5016444;28;20186;-69
2021/07/24 10:14:23;;;;;;;14.60;11.05;;;;;;;;;;5015256;28;20220;-68
2021/07/24 10:16:50;;;;;;;15.02;10.57;;;;;;;;;;5016617;28;20186;-69
2021/07/24 10:19:17;;;;;;;14.13;10.45;;;;;;;;;;5017509;28;20198;-68
2021/07/24 10:21:43;;;;;;;21.70;11.73;;;;;;;;;;5020723;28;20633;-67
2021/07/24 10:24:09;;;;;;;15.20;10.77;;;;;;;;;;5021837;28;20217;-68
2021/07/24 10:26:35;;;;;;;15.68;10.90;;;;;;;;;;5027968;28;20280;-68
2021/07/24 10:29:05;;;;;;;14.30;10.90;;;;;;;;;;5009951;28;20293;-69
2021/07/24 10:31:47;;;;;;;14.32;10.85;;;;;;;;;;5019258;28;20182;-70
2021/07/24 10:34:14;;;;;;;15.18;10.73;;;;;;;;;;5026016;28;20189;-69
2021/07/24 10:36:42;;;;;;;19.50;10.85;;;;;;;;;;5021575;28;20186;-69
2021/07/24 10:39:15;;;;;;;16.45;11.15;;;;;;;;;;5021628;28;20183;-69
2021/07/24 10:41:40;;;;;;;16.80;11.32;;;;;;;;;;5025197;28;20679;-70
2021/07/24 10:44:14;;;;;;;19.23;10.55;;;;;;;;;;5024224;28;20175;-69
2021/07/24 10:46:45;;;;;;;12.90;11.10;;;;;;;;;;5014910;28;20206;-70
2021/07/24 10:49:22;;;;;;;14.95;11.40;;;;;;;;;;5030852;28;20186;-69
2021/07/24 10:52:01;;;;;;;16.80;10.90;;;;;;;;;;5020035;28;20185;-71
2021/07/24 10:54:31;;;;;;;17.05;10.60;;;;;;;;;;5023817;28;20316;-70
2021/07/24 10:56:58;;;;;;;15.32;11.35;;;;;;;;;;5018254;28;20193;-69
2021/07/24 10:59:24;;;;;;;17.85;11.65;;;;;;;;;;5027551;28;20221;-69
2021/07/24 11:01:50;;;;;;;12.57;10.35;;;;;;;;;;5020353;28;20196;-70
2021/07/24 11:04:38;;;;;;;12.60;11.25;;;;;;;;;;5028245;28;20198;-69
2021/07/24 11:07:12;;;;;;;18.00;11.40;;;;;;;;;;5015897;28;20673;-68
2021/07/24 11:09:38;;;;;;;15.38;11.32;;;;;;;;;;5023051;28;20181;-69
2021/07/24 11:12:11;;;;;;;16.50;11.55;;;;;;;;;;5019163;28;20213;-70
2021/07/24 11:14:37;;;;;;;14.02;10.77;;;;;;;;;;5026048;28;20197;-69
2021/07/24 11:17:05;;;;;;;13.63;10.00;;;;;;;;;;5019602;28;20198;-69
2021/07/24 11:19:43;;;;;;;12.30;10.23;;;;;;;;;;5022452;28;20194;-69
2021/07/24 11:22:16;;;;;;;13.02;10.30;;;;;;;;;;5020287;28;20225;-69
2021/07/24 11:24:43;;;;;;;15.10;10.27;;;;;;;;;;5019134;28;20638;-69
2021/07/24 11:27:09;;;;;;;18.20;10.52;;;;;;;;;;5013588;28;20631;-70
2021/07/24 11:29:34;;;;;;;14.55;10.85;;;;;;;;;;5022791;28;20216;-69
2021/07/24 11:32:02;;;;;;;15.43;10.18;;;;;;;;;;5023667;28;20193;-70
2021/07/24 11:34:29;;;;;;;15.15;10.38;;;;;;;;;;5022050;28;20213;-69
2021/07/24 11:36:54;;;;;;;16.00;10.52;;;;;;;;;;5017868;28;20174;-69
2021/07/24 11:39:27;;;;;;;13.85;9.43;;;;;;;;;;5020067;28;20269;-69
2021/07/24 11:41:53;;;;;;;14.32;10.05;;;;;;;;;;5023905;28;20652;-69
2021/07/24 11:44:31;;;;;;;12.25;9.63;;;;;;;;;;5013950;28;20187;-69
2021/07/24 11:47:01;;;;;;;12.13;10.05;;;;;;;;;;5030949;28;20206;-69
2021/07/24 11:49:27;;;;;;;11.82;10.63;;;;;;;;;;5011880;28;20670;-69
2021/07/24 11:51:54;;;;;;;15.13;10.23;;;;;;;;;;5023321;28;20220;-70
2021/07/24 11:54:33;;;;;;;15.10;10.52;;;;;;;;;;5012786;28;20234;-69
2021/07/24 11:57:00;;;;;;;13.25;10.50;;;;;;;;;;5019168;28;21141;-69
2021/07/24 11:59:27;;;;;;;14.52;9.85;;;;;;;;;;5011872;28;20690;-69
2021/07/24 12:01:52;;;;;;;13.30;9.93;;;;;;;;;;5016618;28;20193;-70
2021/07/24 12:04:19;;;;;;;12.05;9.55;;;;;;;;;;5015888;28;20273;-69
2021/07/24 12:06:58;;;;;;;12.73;10.02;;;;;;;;;;5022861;28;20245;-69
2021/07/24 12:09:25;;;;;;;14.23;10.25;;;;;;;;;;5019933;28;20565;-68
2021/07/24 12:11:56;;;;;;;11.45;9.68;;;;;;;;;;5026917;28;20191;-68
2021/07/24 12:14:23;;;;;;;14.57;9.93;;;;;;;;;;5019056;28;20315;-69
2021/07/24 12:17:08;;;;;;;15.32;10.43;;;;;;;;;;5019032;28;20196;-69
2021/07/24 12:19:37;;;;;;;14.40;10.10;;;;;;;;;;5016132;28;20213;-69
2021/07/24 12:22:23;;;;;;;11.35;9.82;;;;;;;;;;5023211;28;20192;-68
2021/07/24 12:24:50;;;;;;;11.60;9.70;;;;;;;;;;5014975;28;20186;-69
2021/07/24 12:27:17;;;;;;;17.67;9.95;;;;;;;;;;5019846;28;20191;-69
2021/07/24 12:29:58;;;;;;;13.63;9.52;;;;;;;;;;5016252;28;20656;-72
2021/07/24 12:32:37;;;;;;;13.45;10.00;;;;;;;;;;5020993;28;20524;-69
2021/07/24 12:35:20;;;;;;;14.35;10.10;;;;;;;;;;5019069;28;20193;-69
2021/07/24 12:37:46;;;;;;;14.65;10.23;;;;;;;;;;5019771;28;20196;-69
2021/07/24 12:40:16;;;;;;;11.65;10.25;;;;;;;;;;5021169;28;20544;-69
2021/07/24 12:42:42;;;;;;;12.90;10.23;;;;;;;;;;5014269;28;20210;-69
2021/07/24 12:45:20;;;;;;;13.40;10.02;;;;;;;;;;5022576;28;20190;-69
2021/07/24 12:47:45;;;;;;;15.45;10.45;;;;;;;;;;5014762;28;20193;-69
2021/07/24 12:50:14;;;;;;;13.93;10.90;;;;;;;;;;5027523;28;20186;-69
2021/07/24 12:52:47;;;;;;;15.30;10.05;;;;;;;;;;5014117;28;20194;-69
2021/07/24 12:55:17;;;;;;;13.82;10.10;;;;;;;;;;5024526;28;20233;-69
2021/07/24 12:57:43;;;;;;;13.63;10.15;;;;;;;;;;5015337;28;20276;-69
2021/07/24 13:00:13;;;;;;;15.57;10.48;;;;;;;;;;5024262;28;20612;-69
2021/07/24 13:02:40;;;;;;;12.07;10.32;;;;;;;;;;5016209;28;20763;-69
2021/07/24 13:05:06;;;;;;;12.63;9.63;;;;;;;;;;5024736;28;20844;-69
2021/07/24 13:07:33;;;;;;;14.00;10.23;;;;;;;;;;5013462;28;20523;-69
2021/07/24 13:09:59;;;;;;;11.02;9.82;;;;;;;;;;5015868;28;20191;-69
2021/07/24 13:12:26;;;;;;;12.35;10.20;;;;;;;;;;5011523;28;20256;-69
2021/07/24 13:14:52;;;;;;;11.77;10.50;;;;;;;;;;5016024;28;20183;-69
2021/07/24 13:17:17;;;;;;;12.20;10.35;;;;;;;;;;5014797;28;20201;-69
2021/07/24 13:19:43;;;;;;;14.30;10.15;;;;;;;;;;5018822;28;20182;-69
2021/07/24 13:22:09;;;;;;;11.75;9.70;;;;;;;;;;5017177;28;20194;-69
2021/07/24 13:24:35;;;;;;;15.25;10.60;;;;;;;;;;5011579;28;20189;-69
2021/07/24 13:29:45;;;;;;;12.30;10.45;;;;;;;;;;5011533;28;20205;-69
2021/07/24 13:32:14;;;;;;;14.13;10.70;;;;;;;;;;5032315;28;20186;-68
2021/07/24 13:34:40;;;;;;;16.75;10.57;;;;;;;;;;5015446;28;20711;-68
2021/07/24 13:37:06;;;;;;;18.33;11.05;;;;;;;;;;5022485;28;20236;-68
2021/07/24 13:39:31;;;;;;;15.77;10.10;;;;;;;;;;5016508;28;20217;-68
2021/07/24 13:41:57;;;;;;;15.00;10.35;;;;;;;;;;5019761;28;20406;-68
2021/07/24 13:44:23;;;;;;;12.68;10.43;;;;;;;;;;5009580;28;20720;-68
2021/07/24 13:46:49;;;;;;;15.43;10.80;;;;;;;;;;5024210;28;20698;-68
2021/07/24 13:49:14;;;;;;;17.50;10.85;;;;;;;;;;5006980;28;20279;-68
2021/07/24 13:51:40;;;;;;;14.00;9.90;;;;;;;;;;5031792;28;20186;-68
2021/07/24 13:54:08;;;;;;;11.30;10.20;;;;;;;;;;5012468;28;20373;-68
2021/07/24 13:56:34;;;;;;;13.70;10.55;;;;;;;;;;5026469;28;20178;-68
2021/07/24 13:59:00;;;;;;;18.27;10.73;;;;;;;;;;5024758;28;20268;-68
2021/07/24 14:01:26;;;;;;;14.15;10.45;;;;;;;;;;5022474;28;20381;-68
2021/07/24 14:03:51;;;;;;;14.85;10.52;;;;;;;;;;5017931;28;20186;-68
2021/07/24 14:06:17;;;;;;;15.50;9.90;;;;;;;;;;5022072;28;20599;-68
2021/07/24 14:08:42;;;;;;;14.00;10.20;;;;;;;;;;5026083;28;20635;-68
2021/07/24 14:11:23;;;;;;;13.50;10.43;;;;;;;;;;5024682;28;20194;-69
2021/07/24 14:13:49;;;;;;;14.10;10.55;;;;;;;;;;5020814;28;20194;-68
2021/07/24 14:16:16;;;;;;;13.07;10.13;;;;;;;;;;5024393;28;20236;-68
2021/07/24 14:18:42;;;;;;;17.35;11.20;;;;;;;;;;5025205;28;20182;-69
2021/07/24 14:21:08;;;;;;;15.00;10.07;;;;;;;;;;5020947;28;20186;-69
2021/07/24 14:23:34;;;;;;;15.07;10.23;;;;;;;;;;5024459;28;20213;-69
2021/07/24 14:26:03;;;;;;;13.00;10.02;;;;;;;;;;5022478;28;20213;-68